Time;durP1;ratioP1;P1;durP2;ratioP2;P2;SDS_P1;SDS_P2;PMS_P1;PMS_P2;Temp;Humidity;BMP_temperature;BMP_pressure;BME280_temperature;BME280_humidity;BME280_pressure;Samples;Min_cycle;Max_cycle;Signal;HPM_P1;HPM_P2
2023/06/07 08:00:38;;;;;;;5.55;3.65;;;22.60;99.90;;;;;;2624643;23;20653;-68
2023/06/07 08:03:05;;;;;;;7.35;4.25;;;23.50;99.90;;;;;;4951258;28;20208;-68
2023/06/07 08:05:31;;;;;;;10.05;4.13;;;23.60;99.90;;;;;;4956633;29;20622;-68
2023/06/07 08:07:58;;;;;;;8.48;4.45;;;24.40;99.90;;;;;;4956540;29;20255;-68
2023/06/07 08:10:25;;;;;;;7.72;4.22;;;25.30;99.90;;;;;;4955865;29;20219;-70
2023/06/07 08:12:52;;;;;;;8.45;4.75;;;25.60;99.90;;;;;;4945053;29;20673;-68
2023/06/07 08:15:19;;;;;;;10.77;5.10;;;25.70;99.00;;;;;;4917291;29;20607;-68
2023/06/07 08:17:47;;;;;;;7.88;4.32;;;24.90;99.50;;;;;;4923300;29;20236;-69
2023/06/07 08:20:14;;;;;;;8.82;4.65;;;23.70;99.90;;;;;;4935948;29;20205;-68
2023/06/07 08:22:42;;;;;;;10.10;5.25;;;23.00;99.90;;;;;;4929286;29;20201;-67
2023/06/07 08:25:10;;;;;;;10.73;5.13;;;22.20;99.90;;;;;;4917268;29;20224;-67
2023/06/07 08:27:37;;;;;;;8.50;4.72;;;21.40;99.90;;;;;;4917026;29;20229;-68
2023/06/07 08:30:05;;;;;;;9.85;4.82;;;21.10;99.90;;;;;;4917712;29;20212;-68
2023/06/07 08:32:32;;;;;;;8.82;4.40;;;20.70;99.90;;;;;;4919496;29;20234;-67
2023/06/07 08:35:01;;;;;;;7.47;4.25;;;20.50;99.90;;;;;;4947403;29;20231;-68
2023/06/07 08:37:27;;;;;;;9.02;5.00;;;20.30;99.90;;;;;;4920842;29;20239;-68
2023/06/07 08:39:54;;;;;;;9.13;4.72;;;20.30;99.90;;;;;;4916841;29;20220;-68
2023/06/07 08:42:21;;;;;;;9.00;4.50;;;20.10;99.90;;;;;;4918989;29;20209;-68
2023/06/07 08:44:48;;;;;;;10.52;5.07;;;20.10;99.90;;;;;;4936622;29;20209;-69
2023/06/07 08:47:17;;;;;;;9.00;4.95;;;19.80;99.90;;;;;;4920132;29;20576;-69
2023/06/07 08:49:45;;;;;;;8.35;4.50;;;19.80;99.90;;;;;;4916485;29;20668;-69
2023/06/07 08:52:13;;;;;;;11.02;4.97;;;19.80;99.90;;;;;;4917343;29;20224;-68
2023/06/07 08:54:43;;;;;;;7.82;4.82;;;19.90;99.90;;;;;;4935460;29;20231;-70
2023/06/07 08:57:10;;;;;;;8.27;4.57;;;20.00;99.90;;;;;;4920449;29;20218;-68
2023/06/07 08:59:38;;;;;;;7.95;4.60;;;20.30;99.90;;;;;;4918897;29;20220;-68
2023/06/07 09:02:05;;;;;;;10.23;4.40;;;20.80;99.90;;;;;;4918227;29;20718;-70
2023/06/07 09:04:34;;;;;;;8.57;4.85;;;21.20;99.90;;;;;;4918712;29;20265;-70
2023/06/07 09:07:03;;;;;;;10.43;4.88;;;21.30;99.90;;;;;;4918568;29;20245;-68
2023/06/07 09:09:32;;;;;;;8.52;4.85;;;21.40;99.90;;;;;;4918867;29;20210;-70
2023/06/07 09:11:58;;;;;;;9.93;5.18;;;22.20;99.90;;;;;;4918700;29;20300;-70
2023/06/07 09:14:28;;;;;;;9.65;5.10;;;22.80;99.90;;;;;;4918577;29;20205;-70
2023/06/07 09:16:55;;;;;;;11.85;4.57;;;22.80;99.90;;;;;;4918218;29;20293;-69
2023/06/07 09:19:33;;;;;;;7.35;4.55;;;23.20;99.90;;;;;;4918280;29;20209;-70
2023/06/07 09:22:01;;;;;;;7.93;4.88;;;23.70;99.90;;;;;;4918859;29;20216;-68
2023/06/07 09:24:29;;;;;;;7.50;5.05;;;24.10;99.90;;;;;;4918192;29;20665;-70
2023/06/07 09:26:58;;;;;;;7.72;4.80;;;24.40;99.90;;;;;;4918092;29;20216;-70
2023/06/07 09:29:27;;;;;;;9.02;5.15;;;25.00;99.90;;;;;;4918239;29;20661;-69
2023/06/07 09:31:54;;;;;;;9.85;5.07;;;25.40;99.90;;;;;;4917906;29;20209;-70
2023/06/07 09:34:23;;;;;;;7.47;4.68;;;25.60;99.90;;;;;;4918268;29;20558;-69
2023/06/07 09:36:54;;;;;;;10.23;4.55;;;25.40;99.90;;;;;;4917940;29;20243;-70
2023/06/07 09:39:22;;;;;;;8.90;5.00;;;24.90;99.90;;;;;;4918253;29;20233;-69
2023/06/07 09:41:50;;;;;;;8.65;5.10;;;24.40;99.90;;;;;;4918194;29;20304;-69
2023/06/07 09:44:28;;;;;;;9.20;5.20;;;24.10;99.90;;;;;;4918070;29;20209;-68
2023/06/07 09:46:55;;;;;;;7.25;4.68;;;24.10;99.90;;;;;;4917749;29;20337;-68
2023/06/07 09:49:28;;;;;;;7.18;4.45;;;24.50;99.90;;;;;;4917672;29;20206;-69
2023/06/07 09:51:55;;;;;;;7.82;5.03;;;25.00;99.90;;;;;;4918089;29;20227;-70
2023/06/07 09:54:37;;;;;;;7.30;4.85;;;24.60;99.90;;;;;;4917766;29;20305;-68
2023/06/07 09:57:08;;;;;;;7.53;4.20;;;23.50;99.90;;;;;;4917009;29;20234;-70
2023/06/07 09:59:37;;;;;;;13.07;4.95;;;23.50;99.90;;;;;;4917889;29;20312;-70
2023/06/07 10:02:24;;;;;;;7.22;4.65;;;23.60;99.90;;;;;;4917195;29;20225;-71
2023/06/07 10:04:52;;;;;;;7.95;4.55;;;24.30;99.90;;;;;;4917626;29;20769;-70
2023/06/07 10:07:21;;;;;;;10.32;4.60;;;24.50;99.90;;;;;;4917461;29;20292;-69
2023/06/07 10:09:52;;;;;;;8.25;4.32;;;24.40;99.90;;;;;;4917377;29;20665;-68
2023/06/07 10:12:22;;;;;;;7.80;4.45;;;24.40;99.90;;;;;;4918013;29;20210;-69
2023/06/07 10:14:52;;;;;;;7.65;5.00;;;24.40;99.90;;;;;;4917457;29;20212;-70
2023/06/07 10:17:22;;;;;;;7.50;4.75;;;23.90;99.90;;;;;;4917286;29;20241;-70
2023/06/07 10:19:52;;;;;;;7.72;4.82;;;23.80;99.90;;;;;;4917459;29;20670;-70
2023/06/07 10:22:25;;;;;;;9.10;4.63;;;23.70;99.90;;;;;;4915597;29;20216;-68
2023/06/07 10:24:58;;;;;;;8.20;4.80;;;24.00;99.90;;;;;;4916700;29;20687;-68
2023/06/07 10:27:27;;;;;;;10.40;4.75;;;23.90;99.90;;;;;;4916969;29;20233;-68
2023/06/07 10:30:02;;;;;;;9.90;4.65;;;23.80;99.90;;;;;;4916942;29;20621;-68
2023/06/07 10:32:31;;;;;;;8.18;4.57;;;23.70;99.90;;;;;;4916540;29;20208;-70
2023/06/07 10:35:00;;;;;;;8.98;4.65;;;23.70;99.90;;;;;;4915858;29;20577;-68
2023/06/07 10:37:30;;;;;;;7.15;4.75;;;23.90;99.90;;;;;;4917350;29;20245;-68
2023/06/07 10:39:58;;;;;;;7.93;4.70;;;23.90;99.90;;;;;;4917014;29;20206;-68
2023/06/07 10:42:25;;;;;;;6.97;4.18;;;24.20;99.90;;;;;;4916973;29;20219;-68
2023/06/07 10:44:53;;;;;;;9.00;4.07;;;24.30;99.90;;;;;;4917146;29;20209;-68
2023/06/07 10:47:30;;;;;;;7.97;4.80;;;24.50;99.90;;;;;;4916625;29;20225;-68
2023/06/07 10:49:57;;;;;;;8.85;4.50;;;24.20;99.90;;;;;;4916720;29;20209;-68
2023/06/07 10:52:26;;;;;;;10.27;4.63;;;23.90;99.90;;;;;;4916650;29;20220;-68
2023/06/07 10:54:53;;;;;;;9.15;4.28;;;24.10;99.90;;;;;;4916646;29;20209;-68
2023/06/07 10:57:34;;;;;;;7.88;4.47;;;24.20;99.90;;;;;;4916265;29;20263;-69
2023/06/07 11:00:28;;;;;;;10.63;4.97;;;24.10;99.90;;;;;;4916246;29;20613;-68
2023/06/07 11:03:33;;;;;;;7.72;4.25;;;24.10;99.90;;;;;;4916471;29;20219;-69
2023/06/07 11:06:09;;;;;;;8.13;4.22;;;24.20;99.90;;;;;;4916276;29;20209;-69
2023/06/07 11:08:37;;;;;;;8.45;4.07;;;24.40;99.90;;;;;;4916307;29;20264;-68
2023/06/07 11:11:26;;;;;;;9.00;4.60;;;24.20;99.90;;;;;;4916786;29;20213;-69
2023/06/07 11:14:14;;;;;;;6.80;4.50;;;24.10;99.90;;;;;;4918271;29;20213;-68
2023/06/07 11:16:42;;;;;;;6.82;4.10;;;24.10;99.90;;;;;;4920492;29;20241;-70
2023/06/07 11:19:16;;;;;;;9.82;4.32;;;24.30;99.90;;;;;;4920343;29;20316;-68
2023/06/07 11:22:04;;;;;;;6.15;4.05;;;24.30;99.90;;;;;;4920379;29;20300;-68
2023/06/07 11:24:33;;;;;;;8.45;4.50;;;24.40;99.90;;;;;;4920108;29;20205;-68
2023/06/07 11:27:00;;;;;;;7.38;4.28;;;24.70;99.90;;;;;;4919993;29;20213;-68
2023/06/07 11:29:28;;;;;;;10.68;4.82;;;24.60;99.90;;;;;;4919733;29;20213;-68
2023/06/07 11:32:00;;;;;;;8.43;4.28;;;24.30;99.90;;;;;;4919322;29;20298;-68
2023/06/07 11:34:29;;;;;;;9.10;5.00;;;24.40;99.90;;;;;;4920049;29;20220;-68
2023/06/07 11:37:16;;;;;;;12.30;4.30;;;24.50;99.90;;;;;;4920115;29;20233;-68
2023/06/07 11:39:44;;;;;;;6.75;4.20;;;24.90;99.90;;;;;;4920194;29;20292;-68
2023/06/07 11:42:11;;;;;;;6.15;3.67;;;25.10;99.90;;;;;;4920207;29;20231;-69
2023/06/07 11:44:38;;;;;;;7.45;3.90;;;25.20;99.90;;;;;;4920125;29;20214;-71
2023/06/07 11:47:06;;;;;;;8.20;4.85;;;25.30;99.90;;;;;;4919923;29;20209;-70
2023/06/07 11:49:35;;;;;;;8.25;4.97;;;25.10;99.90;;;;;;4920125;29;20253;-70
2023/06/07 11:52:02;;;;;;;6.45;3.97;;;25.20;99.90;;;;;;4920073;29;20216;-70
2023/06/07 11:54:30;;;;;;;6.65;3.85;;;25.40;99.90;;;;;;4919878;29;20210;-68
2023/06/07 11:56:58;;;;;;;6.13;3.70;;;25.30;99.90;;;;;;4919761;29;20244;-68
2023/06/07 11:59:25;;;;;;;7.10;3.60;;;25.10;99.90;;;;;;4919652;29;20673;-70
2023/06/07 12:01:54;;;;;;;10.75;3.95;;;24.80;99.90;;;;;;4919644;29;20311;-68
2023/06/07 12:04:22;;;;;;;5.60;3.85;;;24.70;99.90;;;;;;4919808;29;20210;-68
2023/06/07 12:06:49;;;;;;;5.13;3.03;;;24.90;99.90;;;;;;4919541;29;20233;-68
2023/06/07 12:09:18;;;;;;;6.05;3.40;;;24.90;99.90;;;;;;4919227;29;20281;-67
2023/06/07 12:11:47;;;;;;;6.30;3.40;;;24.70;99.90;;;;;;4919997;29;20296;-67
2023/06/07 12:14:30;;;;;;;8.30;3.35;;;24.80;99.90;;;;;;4919489;29;20209;-69
2023/06/07 12:16:58;;;;;;;5.90;2.88;;;24.50;99.90;;;;;;4919199;29;20229;-69
2023/06/07 12:19:25;;;;;;;5.20;3.13;;;24.60;99.90;;;;;;4920232;29;20763;-68
2023/06/07 12:21:52;;;;;;;10.38;3.13;;;25.00;99.90;;;;;;4923684;29;20588;-70
2023/06/07 12:24:19;;;;;;;6.72;3.83;;;25.10;99.80;;;;;;4925243;29;20576;-70
2023/06/07 12:26:47;;;;;;;4.55;3.20;;;24.60;99.90;;;;;;4924189;29;20237;-70
2023/06/07 12:29:14;;;;;;;4.95;3.15;;;24.50;99.90;;;;;;4920945;29;20229;-69
2023/06/07 12:31:41;;;;;;;5.18;3.20;;;24.60;99.90;;;;;;4919949;29;20214;-69
2023/06/07 12:34:10;;;;;;;6.10;3.30;;;24.70;99.90;;;;;;4919334;29;20257;-70
2023/06/07 12:36:39;;;;;;;9.27;3.20;;;24.60;99.90;;;;;;4919441;29;20704;-69
2023/06/07 12:39:08;;;;;;;5.32;3.20;;;24.80;99.90;;;;;;4919413;29;20277;-70
2023/06/07 12:41:35;;;;;;;6.25;3.60;;;25.10;99.90;;;;;;4918964;29;20213;-69
2023/06/07 12:44:05;;;;;;;7.85;4.20;;;25.20;99.90;;;;;;4919314;29;20213;-70
2023/06/07 12:46:32;;;;;;;7.10;4.00;;;24.60;99.90;;;;;;4919063;29;20210;-69
2023/06/07 12:48:59;;;;;;;7.95;3.50;;;24.50;99.90;;;;;;4919073;29;20230;-69
2023/06/07 12:51:27;;;;;;;6.57;3.65;;;24.60;99.90;;;;;;4919198;29;20296;-69
2023/06/07 12:53:54;;;;;;;11.70;3.58;;;24.90;99.90;;;;;;4918915;29;20240;-70
2023/06/07 12:56:21;;;;;;;6.55;4.32;;;25.00;99.90;;;;;;4919061;29;20239;-70
2023/06/07 12:58:48;;;;;;;7.40;3.63;;;25.10;99.90;;;;;;4918772;29;20833;-70
2023/06/07 13:01:16;;;;;;;7.75;3.65;;;24.90;99.90;;;;;;4918674;29;20673;-68
2023/06/07 13:03:44;;;;;;;6.65;3.60;;;24.70;99.90;;;;;;4918830;29;20206;-68
2023/06/07 13:06:11;;;;;;;5.65;3.70;;;24.80;99.90;;;;;;4918170;29;20300;-68
2023/06/07 13:08:38;;;;;;;4.93;3.35;;;24.60;99.90;;;;;;4918405;29;20229;-67
2023/06/07 13:11:05;;;;;;;4.55;2.60;;;24.50;99.90;;;;;;4918689;29;20213;-67
2023/06/07 13:13:33;;;;;;;5.80;2.75;;;24.30;99.90;;;;;;4917870;29;20224;-68
2023/06/07 13:16:00;;;;;;;5.38;2.65;;;23.80;99.90;;;;;;4918603;29;20206;-69
2023/06/07 13:18:28;;;;;;;4.18;2.28;;;23.80;99.90;;;;;;4918608;29;20312;-69
2023/06/07 13:20:56;;;;;;;5.00;2.60;;;23.50;99.90;;;;;;4918175;29;20210;-66
2023/06/07 13:23:23;;;;;;;2.85;2.17;;;23.50;99.90;;;;;;4918140;29;20213;-68
2023/06/07 13:25:50;;;;;;;3.42;2.38;;;23.30;99.90;;;;;;4918195;29;20681;-68
2023/06/07 13:28:17;;;;;;;3.58;2.03;;;23.00;99.90;;;;;;4918256;29;20229;-69
2023/06/07 13:30:44;;;;;;;3.63;2.60;;;22.60;99.90;;;;;;4917974;29;20213;-67
2023/06/07 13:33:17;;;;;;;4.07;2.67;;;22.00;99.90;;;;;;4918047;29;20561;-68
2023/06/07 13:35:45;;;;;;;5.53;3.30;;;21.40;99.90;;;;;;4917391;29;20214;-68
2023/06/07 13:38:12;;;;;;;5.05;2.75;;;21.10;99.90;;;;;;4917930;29;20260;-69
2023/06/07 13:40:39;;;;;;;5.82;2.60;;;21.00;99.90;;;;;;4917876;29;20293;-69
2023/06/07 13:43:06;;;;;;;4.63;2.45;;;20.90;99.90;;;;;;4917600;29;20205;-67
2023/06/07 13:45:33;;;;;;;4.38;2.40;;;20.90;99.90;;;;;;4917656;29;20677;-68
2023/06/07 13:48:01;;;;;;;3.35;2.20;;;21.00;99.90;;;;;;4917639;29;20233;-68
2023/06/07 13:50:29;;;;;;;4.38;2.35;;;21.10;99.90;;;;;;4917863;29;20213;-68
2023/06/07 13:52:57;;;;;;;3.47;1.98;;;21.50;99.90;;;;;;4917865;29;20210;-68
2023/06/07 13:55:24;;;;;;;5.40;2.17;;;21.80;99.90;;;;;;4917766;29;20216;-68
2023/06/07 13:57:51;;;;;;;3.38;2.10;;;22.10;99.90;;;;;;4918204;29;20244;-67
2023/06/07 14:00:19;;;;;;;2.88;2.08;;;22.10;99.90;;;;;;4917711;29;20228;-68
2023/06/07 14:02:46;;;;;;;2.72;2.03;;;22.20;99.90;;;;;;4917492;29;20205;-68
2023/06/07 14:05:14;;;;;;;3.50;2.03;;;22.30;99.90;;;;;;4917810;29;20572;-68
2023/06/07 14:07:41;;;;;;;4.05;2.00;;;22.40;99.90;;;;;;4917733;29;20230;-68
2023/06/07 14:10:10;;;;;;;3.03;2.00;;;22.60;99.90;;;;;;4918103;29;20205;-67
2023/06/07 14:12:38;;;;;;;3.45;2.00;;;22.80;99.90;;;;;;4917571;29;20248;-68
2023/06/07 14:15:06;;;;;;;2.90;1.98;;;22.90;99.90;;;;;;4917391;29;20210;-67
2023/06/07 14:17:33;;;;;;;2.40;1.80;;;22.70;99.90;;;;;;4917115;29;20259;-67
2023/06/07 14:19:59;;;;;;;2.70;2.13;;;23.00;99.90;;;;;;4917549;29;20213;-67
2023/06/07 14:22:26;;;;;;;3.35;1.80;;;22.90;99.90;;;;;;4917681;29;20209;-68
2023/06/07 14:24:53;;;;;;;2.78;1.80;;;22.70;99.90;;;;;;4917178;29;20237;-67
2023/06/07 14:27:21;;;;;;;2.38;1.65;;;22.90;99.90;;;;;;4917444;29;20229;-68
2023/06/07 14:29:48;;;;;;;1.90;1.70;;;23.00;99.90;;;;;;4917094;29;20552;-68
2023/06/07 14:32:15;;;;;;;3.25;1.70;;;23.30;99.90;;;;;;4917316;29;20206;-69
2023/06/07 14:34:42;;;;;;;3.05;2.10;;;23.80;99.90;;;;;;4917414;29;20602;-69
2023/06/07 14:37:09;;;;;;;3.00;1.75;;;24.00;99.90;;;;;;4917311;29;20230;-69
2023/06/07 14:39:36;;;;;;;3.40;1.77;;;24.10;99.50;;;;;;4917084;29;20610;-68
2023/06/07 14:42:03;;;;;;;2.58;1.70;;;24.00;99.30;;;;;;4917130;29;20214;-69
2023/06/07 14:44:31;;;;;;;2.35;1.52;;;23.70;99.60;;;;;;4916939;29;20205;-68
2023/06/07 14:46:58;;;;;;;3.42;1.80;;;23.80;99.90;;;;;;4917193;29;20209;-69
2023/06/07 14:49:24;;;;;;;3.72;1.80;;;24.00;99.50;;;;;;4916982;29;20214;-69
2023/06/07 14:51:51;;;;;;;3.08;1.77;;;24.20;99.80;;;;;;4917103;29;20209;-68
2023/06/07 14:54:18;;;;;;;3.20;1.95;;;24.20;99.80;;;;;;4916934;29;20231;-69
2023/06/07 14:56:45;;;;;;;2.50;2.17;;;24.10;99.80;;;;;;4917215;29;20220;-69
2023/06/07 14:59:12;;;;;;;3.22;1.95;;;23.80;99.60;;;;;;4916592;29;20795;-68
2023/06/07 15:01:40;;;;;;;2.53;1.90;;;23.90;99.90;;;;;;4916320;29;20306;-68
2023/06/07 15:04:07;;;;;;;2.50;1.77;;;24.00;99.70;;;;;;4916983;29;20216;-70
2023/06/07 15:06:34;;;;;;;3.63;2.17;;;23.70;99.90;;;;;;4916568;29;20300;-70
2023/06/07 15:09:01;;;;;;;4.68;2.08;;;24.00;99.90;;;;;;4916966;29;20336;-69
2023/06/07 15:11:28;;;;;;;2.58;1.60;;;24.20;99.90;;;;;;4916571;29;20216;-70
2023/06/07 15:13:55;;;;;;;2.40;1.88;;;24.40;99.00;;;;;;4916558;29;20209;-69
2023/06/07 15:16:21;;;;;;;2.63;1.80;;;23.80;99.50;;;;;;4916824;29;20570;-68
2023/06/07 15:18:50;;;;;;;3.83;1.80;;;23.60;99.70;;;;;;4916530;29;20241;-69
2023/06/07 15:21:17;;;;;;;2.78;1.80;;;23.70;99.80;;;;;;4916709;29;20657;-69
2023/06/07 15:23:43;;;;;;;3.28;2.17;;;23.60;99.90;;;;;;4916929;29;20747;-70
2023/06/07 15:26:10;;;;;;;3.92;1.75;;;23.60;99.90;;;;;;4916616;29;20216;-68
2023/06/07 15:28:37;;;;;;;8.50;1.70;;;23.60;99.90;;;;;;4916321;29;20244;-69
2023/06/07 15:31:04;;;;;;;2.72;1.73;;;23.50;99.90;;;;;;4916605;29;20216;-70
2023/06/07 15:33:31;;;;;;;2.85;1.98;;;23.40;99.90;;;;;;4916361;29;20679;-71
2023/06/07 15:35:59;;;;;;;4.18;1.70;;;23.30;99.90;;;;;;4916313;29;20247;-68
2023/06/07 15:38:26;;;;;;;3.45;1.90;;;23.30;99.90;;;;;;4916141;29;20276;-67
2023/06/07 15:40:53;;;;;;;3.78;1.77;;;23.20;99.90;;;;;;4916404;29;20304;-68
2023/06/07 15:43:19;;;;;;;2.65;1.80;;;23.00;99.90;;;;;;4916436;29;20216;-68
2023/06/07 15:45:48;;;;;;;2.75;1.80;;;23.00;99.90;;;;;;4916620;29;20209;-68
2023/06/07 15:48:15;;;;;;;3.50;1.90;;;23.10;99.90;;;;;;4915918;29;20230;-68
2023/06/07 15:50:41;;;;;;;5.65;1.90;;;23.00;99.90;;;;;;4916231;29;20216;-69
2023/06/07 15:53:09;;;;;;;2.70;2.08;;;22.90;99.90;;;;;;4916018;29;20305;-68
2023/06/07 15:55:36;;;;;;;2.60;1.92;;;23.00;99.90;;;;;;4916206;29;20301;-68
2023/06/07 15:58:03;;;;;;;7.47;2.08;;;22.90;99.90;;;;;;4916165;29;20241;-68
2023/06/07 16:00:30;;;;;;;2.10;1.73;;;22.80;99.90;;;;;;4918906;29;20226;-68
2023/06/07 16:02:57;;;;;;;3.15;1.80;;;23.00;99.90;;;;;;4919946;29;20273;-70
2023/06/07 16:05:24;;;;;;;3.03;1.90;;;23.00;99.90;;;;;;4919756;29;20668;-69
2023/06/07 16:07:51;;;;;;;3.05;1.75;;;23.10;99.90;;;;;;4919662;29;20240;-69
2023/06/07 16:10:19;;;;;;;3.10;1.88;;;23.00;99.90;;;;;;4919811;29;20645;-70
2023/06/07 16:12:46;;;;;;;3.08;2.10;;;23.00;99.90;;;;;;4919296;29;20307;-68
2023/06/07 16:15:13;;;;;;;3.28;2.10;;;22.90;99.90;;;;;;4919564;29;20214;-68
2023/06/07 16:17:40;;;;;;;2.45;1.73;;;22.80;99.90;;;;;;4919227;29;20237;-68
2023/06/07 16:20:07;;;;;;;3.03;1.73;;;22.80;99.90;;;;;;4919217;29;20216;-69
2023/06/07 16:22:34;;;;;;;2.78;2.00;;;22.70;99.90;;;;;;4919662;29;20224;-68
2023/06/07 16:25:01;;;;;;;3.85;1.92;;;22.90;99.90;;;;;;4919795;29;20217;-69
2023/06/07 16:27:30;;;;;;;3.47;2.10;;;22.80;99.90;;;;;;4918933;29;20240;-68
2023/06/07 16:29:57;;;;;;;3.67;2.03;;;23.20;99.90;;;;;;4919331;29;20300;-69
2023/06/07 16:32:24;;;;;;;4.35;1.90;;;23.50;99.90;;;;;;4919477;29;20573;-69
2023/06/07 16:34:51;;;;;;;3.50;2.08;;;23.60;99.90;;;;;;4919152;29;20209;-68
2023/06/07 16:37:18;;;;;;;2.95;1.98;;;23.50;99.90;;;;;;4918968;29;20237;-68
2023/06/07 16:39:45;;;;;;;4.18;2.08;;;23.40;99.90;;;;;;4919176;29;20221;-67
2023/06/07 16:42:11;;;;;;;3.58;2.17;;;23.00;99.90;;;;;;4918873;29;20305;-68
2023/06/07 16:44:40;;;;;;;3.72;2.22;;;22.80;99.90;;;;;;4919034;29;20675;-68
2023/06/07 16:47:07;;;;;;;5.57;2.33;;;22.60;99.90;;;;;;4918742;29;20216;-68
2023/06/07 16:49:34;;;;;;;2.88;2.05;;;22.40;99.90;;;;;;4919052;29;20216;-68
2023/06/07 16:52:00;;;;;;;4.18;2.33;;;22.40;99.90;;;;;;4918966;29;20644;-68
2023/06/07 16:54:27;;;;;;;5.25;2.53;;;22.50;99.90;;;;;;4919118;29;20209;-69
2023/06/07 16:56:55;;;;;;;3.80;2.10;;;22.70;99.90;;;;;;4918754;29;20320;-69
2023/06/07 16:59:21;;;;;;;3.45;2.10;;;22.90;99.90;;;;;;4918662;29;20238;-68
2023/06/07 17:01:50;;;;;;;2.90;2.33;;;23.00;99.90;;;;;;4918415;29;20236;-69
2023/06/07 17:04:17;;;;;;;4.28;2.38;;;23.10;99.90;;;;;;4918617;29;20218;-69
2023/06/07 17:06:44;;;;;;;3.53;2.22;;;23.10;99.90;;;;;;4918735;29;20340;-69
2023/06/07 17:09:11;;;;;;;2.47;2.08;;;23.30;99.90;;;;;;4918590;29;20237;-70
2023/06/07 17:11:38;;;;;;;3.47;2.17;;;23.30;99.90;;;;;;4917638;29;20220;-69
2023/06/07 17:14:05;;;;;;;3.00;2.25;;;23.40;99.90;;;;;;4918934;29;20214;-69
2023/06/07 17:16:32;;;;;;;5.35;2.47;;;23.50;99.90;;;;;;4918064;29;20220;-68
2023/06/07 17:19:00;;;;;;;5.03;2.30;;;23.30;99.90;;;;;;4918483;29;20263;-69
2023/06/07 17:21:27;;;;;;;6.22;2.35;;;23.20;99.90;;;;;;4918272;29;20216;-69
2023/06/07 17:23:54;;;;;;;3.33;2.28;;;23.30;99.90;;;;;;4918671;29;20209;-69
2023/06/07 17:26:21;;;;;;;7.70;2.38;;;23.30;99.90;;;;;;4918172;29;20214;-69
2023/06/07 17:28:48;;;;;;;5.70;3.00;;;23.20;99.90;;;;;;4918240;29;20333;-69
2023/06/07 17:31:15;;;;;;;4.82;2.60;;;22.90;99.90;;;;;;4918470;29;20209;-69
2023/06/07 17:33:41;;;;;;;2.88;2.30;;;23.00;99.90;;;;;;4917954;29;20675;-69
2023/06/07 17:36:11;;;;;;;3.30;2.35;;;23.00;99.90;;;;;;4918206;29;20621;-69
2023/06/07 17:38:37;;;;;;;4.30;2.75;;;22.90;99.90;;;;;;4918044;29;20241;-69
2023/06/07 17:41:04;;;;;;;6.30;2.80;;;23.00;99.90;;;;;;4918090;29;20231;-69
2023/06/07 17:43:31;;;;;;;4.25;2.25;;;23.10;99.90;;;;;;4918004;29;20634;-68
2023/06/07 17:45:58;;;;;;;4.47;2.42;;;23.10;99.90;;;;;;4918083;29;20296;-68
2023/06/07 17:48:25;;;;;;;4.60;2.40;;;23.20;99.90;;;;;;4917748;29;20234;-69
2023/06/07 17:50:53;;;;;;;3.70;2.58;;;23.50;99.90;;;;;;4918113;29;20665;-68
2023/06/07 17:53:21;;;;;;;4.00;2.65;;;23.50;99.90;;;;;;4918040;29;20212;-68
2023/06/07 17:55:48;;;;;;;3.38;2.28;;;23.50;99.90;;;;;;4917785;29;20300;-69
2023/06/07 17:58:14;;;;;;;4.15;2.60;;;23.50;99.90;;;;;;4917156;29;20604;-69
2023/06/07 18:00:41;;;;;;;6.05;2.50;;;23.60;99.90;;;;;;4917291;29;20221;-70
2023/06/07 18:03:08;;;;;;;3.90;2.60;;;23.50;99.90;;;;;;4917195;29;20216;-69
2023/06/07 18:05:35;;;;;;;4.15;2.50;;;23.50;99.90;;;;;;4917383;29;20202;-68
2023/06/07 18:08:03;;;;;;;6.82;2.47;;;23.70;99.90;;;;;;4916951;29;20320;-69
2023/06/07 18:10:31;;;;;;;2.92;2.00;;;23.70;99.60;;;;;;4917373;29;20563;-69
2023/06/07 18:12:59;;;;;;;3.33;2.05;;;23.80;99.30;;;;;;4912076;29;20633;-70
2023/06/07 18:15:27;;;;;;;4.85;2.35;;;23.50;99.40;;;;;;4932737;29;20300;-70
2023/06/07 18:17:54;;;;;;;5.80;1.90;;;23.30;99.90;;;;;;4934214;29;20712;-69
2023/06/07 18:20:21;;;;;;;7.15;2.38;;;23.20;99.90;;;;;;4934858;29;20205;-70
2023/06/07 18:22:49;;;;;;;7.57;2.30;;;23.20;99.80;;;;;;4931834;29;20233;-68
2023/06/07 18:25:15;;;;;;;3.78;1.98;;;23.30;99.90;;;;;;4934828;29;20213;-68
2023/06/07 18:27:44;;;;;;;4.85;2.08;;;23.10;99.90;;;;;;4934104;29;20221;-69
2023/06/07 18:30:11;;;;;;;2.53;1.80;;;23.00;99.90;;;;;;4934710;29;20215;-71
2023/06/07 18:32:38;;;;;;;2.80;1.80;;;23.00;99.90;;;;;;4945231;29;20205;-68
2023/06/07 18:35:05;;;;;;;5.47;2.45;;;23.00;99.90;;;;;;4933312;29;20209;-69
2023/06/07 18:37:32;;;;;;;3.15;2.03;;;23.20;99.90;;;;;;4928172;29;20664;-70
2023/06/07 18:40:04;;;;;;;4.00;2.30;;;23.20;99.90;;;;;;4914531;29;20272;-70
2023/06/07 18:42:31;;;;;;;4.00;2.00;;;23.00;99.90;;;;;;4917551;29;20213;-71
2023/06/07 18:44:59;;;;;;;2.10;1.67;;;22.80;99.90;;;;;;4933629;29;20240;-68
2023/06/07 18:47:26;;;;;;;2.47;2.03;;;22.90;99.90;;;;;;4933368;29;20229;-69
2023/06/07 18:49:53;;;;;;;7.18;2.40;;;22.80;99.90;;;;;;4933634;29;20240;-68
2023/06/07 18:52:20;;;;;;;4.47;2.65;;;22.80;99.90;;;;;;4932261;29;20673;-68
2023/06/07 18:54:48;;;;;;;3.65;2.03;;;22.80;99.90;;;;;;4934058;29;20204;-68
2023/06/07 18:57:15;;;;;;;3.88;1.98;;;22.70;99.90;;;;;;4933557;29;20251;-68
2023/06/07 18:59:42;;;;;;;5.53;1.98;;;22.70;99.90;;;;;;4933875;29;20233;-70
2023/06/07 19:02:13;;;;;;;3.17;1.67;;;22.50;99.90;;;;;;4931708;29;20645;-69
2023/06/07 19:04:40;;;;;;;3.67;2.38;;;22.50;99.90;;;;;;4933290;29;20291;-68
2023/06/07 19:07:07;;;;;;;3.58;2.20;;;22.20;99.90;;;;;;4933546;29;20656;-71
2023/06/07 19:09:34;;;;;;;3.95;1.92;;;22.20;99.90;;;;;;4935177;29;20628;-69
2023/06/07 19:12:01;;;;;;;4.85;2.05;;;22.10;99.90;;;;;;4935305;29;20212;-69
2023/06/07 19:14:30;;;;;;;2.67;1.92;;;22.20;99.90;;;;;;4935320;29;20333;-69
2023/06/07 19:16:57;;;;;;;8.43;1.83;;;22.30;99.90;;;;;;4935329;29;20283;-69
2023/06/07 19:19:25;;;;;;;4.00;2.10;;;22.30;99.90;;;;;;4935723;29;20599;-69
2023/06/07 19:21:52;;;;;;;9.63;2.03;;;22.20;99.90;;;;;;4935891;29;20309;-69
2023/06/07 19:24:19;;;;;;;3.83;1.88;;;22.10;99.90;;;;;;4935866;29;20209;-68
2023/06/07 19:26:46;;;;;;;4.63;2.17;;;22.10;99.90;;;;;;4936312;29;20209;-69
2023/06/07 19:29:13;;;;;;;5.13;2.00;;;22.00;99.90;;;;;;4935462;29;20640;-69
2023/06/07 19:31:40;;;;;;;3.47;2.20;;;21.90;99.90;;;;;;4935295;29;20215;-69
2023/06/07 19:34:07;;;;;;;3.58;1.83;;;22.00;99.90;;;;;;4935208;29;20209;-69
2023/06/07 19:36:36;;;;;;;2.67;1.90;;;22.00;99.90;;;;;;4938777;29;20296;-68
2023/06/07 19:39:03;;;;;;;3.47;1.90;;;21.90;99.90;;;;;;4938981;29;20290;-69
2023/06/07 19:41:30;;;;;;;3.20;1.75;;;21.80;99.90;;;;;;4938700;29;20213;-68
2023/06/07 19:43:57;;;;;;;2.90;1.83;;;21.90;99.90;;;;;;4938874;29;20634;-69
2023/06/07 19:46:24;;;;;;;4.10;2.00;;;21.90;99.90;;;;;;4938736;29;20204;-68
2023/06/07 19:48:51;;;;;;;2.92;2.20;;;21.80;99.90;;;;;;4938476;29;20236;-68
2023/06/07 19:51:19;;;;;;;2.92;2.05;;;21.80;99.90;;;;;;4938585;29;20216;-68
2023/06/07 19:53:47;;;;;;;4.82;2.20;;;21.60;99.90;;;;;;4938667;29;20320;-68
2023/06/07 19:56:14;;;;;;;3.45;1.98;;;21.50;99.90;;;;;;4938748;29;20208;-68
2023/06/07 19:58:41;;;;;;;2.97;2.13;;;21.40;99.90;;;;;;4938780;29;20255;-70
2023/06/07 20:01:08;;;;;;;4.50;2.35;;;21.50;99.90;;;;;;4938172;29;20216;-69
2023/06/07 20:03:34;;;;;;;3.03;1.70;;;21.40;99.90;;;;;;4938148;29;20219;-70
2023/06/07 20:06:01;;;;;;;4.03;1.95;;;21.50;99.90;;;;;;4937799;29;20299;-70
2023/06/07 20:08:28;;;;;;;3.72;2.17;;;21.50;99.90;;;;;;4938040;29;20666;-70
2023/06/07 20:10:56;;;;;;;5.03;2.22;;;21.60;99.90;;;;;;4938357;29;20204;-69
2023/06/07 20:13:23;;;;;;;3.20;2.05;;;21.60;99.90;;;;;;4938277;29;20205;-69
2023/06/07 20:15:50;;;;;;;4.63;2.20;;;21.30;99.90;;;;;;4938400;29;20285;-69
2023/06/07 20:18:17;;;;;;;2.85;1.85;;;21.20;99.90;;;;;;4938530;29;20232;-70
2023/06/07 20:20:43;;;;;;;7.15;2.22;;;21.10;99.90;;;;;;4938739;29;20209;-70
2023/06/07 20:23:10;;;;;;;4.15;2.13;;;20.80;99.90;;;;;;4938527;29;20296;-70
2023/06/07 20:25:37;;;;;;;3.17;1.92;;;20.80;99.90;;;;;;4938370;29;20240;-69
2023/06/07 20:28:05;;;;;;;4.60;2.05;;;20.90;99.90;;;;;;4938107;29;20250;-70
2023/06/07 20:30:32;;;;;;;4.50;2.30;;;20.70;99.90;;;;;;4938169;29;20252;-70
2023/06/07 20:32:59;;;;;;;2.97;2.05;;;20.70;99.90;;;;;;4938027;29;20213;-69
2023/06/07 20:35:26;;;;;;;5.25;1.95;;;20.80;99.90;;;;;;4938037;29;20299;-70
2023/06/07 20:37:54;;;;;;;2.92;2.10;;;20.80;99.90;;;;;;4938138;29;20229;-69
2023/06/07 20:40:21;;;;;;;3.63;2.28;;;20.60;99.90;;;;;;4937923;29;20239;-69
2023/06/07 20:42:48;;;;;;;2.92;2.28;;;20.60;99.90;;;;;;4938050;29;20205;-69
2023/06/07 20:45:16;;;;;;;2.42;2.00;;;20.70;99.90;;;;;;4938181;29;20209;-69
2023/06/07 20:47:43;;;;;;;6.40;2.03;;;20.60;99.90;;;;;;4937520;29;20664;-69
2023/06/07 20:50:11;;;;;;;4.32;2.30;;;20.50;99.90;;;;;;4937866;29;20209;-69